createdAt,value
2023-02-24T00:02:07.209Z,4.16
2023-02-24T00:05:15.117Z,4.18
2023-02-24T00:08:23.080Z,4.16
2023-02-24T00:11:31.186Z,4.14
2023-02-24T00:14:38.898Z,4.15
2023-02-24T00:17:46.785Z,4.14
2023-02-24T00:20:55.050Z,4.18
2023-02-24T00:24:02.777Z,4.18
2023-02-24T00:27:10.894Z,4.19
2023-02-24T00:30:19.373Z,4.16
2023-02-24T00:33:26.968Z,4.19
2023-02-24T00:36:35.327Z,4.16
2023-02-24T00:39:43.871Z,4.14
2023-02-24T00:42:51.532Z,4.16
2023-02-24T00:45:59.687Z,4.14
2023-02-24T00:49:07.996Z,4.12
2023-02-24T00:52:15.776Z,4.10
2023-02-24T00:55:24.326Z,4.10
2023-02-24T00:58:31.931Z,4.10
2023-02-24T01:01:39.790Z,4.03
2023-02-24T01:04:47.681Z,3.98
2023-02-24T01:07:55.516Z,3.97
2023-02-24T01:11:03.906Z,3.89
2023-02-24T01:14:11.931Z,3.80
2023-02-24T01:17:19.684Z,3.76
2023-02-24T01:20:27.885Z,3.71
2023-02-24T01:23:35.216Z,3.64
2023-02-24T01:26:43.409Z,3.62
2023-02-24T01:29:51.537Z,3.61
2023-02-24T01:32:59.361Z,3.61
2023-02-24T01:36:08.145Z,3.58
2023-02-24T01:39:16.031Z,3.60
2023-02-24T01:42:23.977Z,3.58
2023-02-24T01:45:32.133Z,3.58
2023-02-24T01:48:40.118Z,3.60
2023-02-24T01:51:47.896Z,3.64
2023-02-24T01:54:55.776Z,3.67
2023-02-24T01:58:03.736Z,3.68
2023-02-24T02:01:11.491Z,3.72
2023-02-24T02:04:18.560Z,3.76
2023-02-24T02:07:26.682Z,3.78
2023-02-24T02:10:34.289Z,3.79
2023-02-24T02:13:41.965Z,3.82
2023-02-24T02:16:49.547Z,3.85
2023-02-24T02:19:56.676Z,3.83
2023-02-24T02:23:04.170Z,3.88
2023-02-24T02:26:11.856Z,3.89
2023-02-24T02:29:19.056Z,3.90
2023-02-24T02:32:27.189Z,3.92
2023-02-24T02:35:34.842Z,3.96
2023-02-24T02:38:42.046Z,3.94
2023-02-24T02:41:49.726Z,3.89
2023-02-24T02:44:58.101Z,3.90
2023-02-24T02:48:05.422Z,3.92
2023-02-24T02:51:12.964Z,3.92
2023-02-24T02:54:20.393Z,3.89
2023-02-24T02:57:28.234Z,3.86
2023-02-24T03:00:35.539Z,3.85
2023-02-24T03:03:42.936Z,3.83
2023-02-24T03:06:50.789Z,3.86
2023-02-24T03:09:58.063Z,3.82
2023-02-24T03:13:05.766Z,3.82
2023-02-24T03:16:13.205Z,3.80
2023-02-24T03:19:20.306Z,3.78
2023-02-24T03:22:27.845Z,3.76
2023-02-24T03:25:35.447Z,3.76
2023-02-24T03:28:42.708Z,3.80
2023-02-24T03:31:50.440Z,3.79
2023-02-24T03:34:57.948Z,3.78
2023-02-24T03:38:05.329Z,3.78
2023-02-24T03:41:12.719Z,3.78
2023-02-24T03:44:20.626Z,3.76
2023-02-24T03:47:28.178Z,3.76
2023-02-24T03:50:36.143Z,3.72
2023-02-24T03:53:43.897Z,3.71
2023-02-24T03:56:50.832Z,3.71
2023-02-24T03:59:58.442Z,3.68
2023-02-24T04:03:06.211Z,3.68
2023-02-24T04:06:13.231Z,3.68
2023-02-24T04:09:21.162Z,3.67
2023-02-24T04:12:29.499Z,3.67
2023-02-24T04:15:36.502Z,3.65
2023-02-24T04:18:44.152Z,3.64
2023-02-24T04:21:51.686Z,3.62
2023-02-24T04:24:59.066Z,3.61
2023-02-24T04:28:06.960Z,3.58
2023-02-24T04:31:14.713Z,3.60
2023-02-24T04:34:22.106Z,3.62
2023-02-24T04:37:29.637Z,3.58
2023-02-24T04:40:37.248Z,3.57
2023-02-24T04:43:44.303Z,3.60
2023-02-24T04:46:51.620Z,3.57
2023-02-24T04:49:59.312Z,3.53
2023-02-24T04:53:06.697Z,3.53
2023-02-24T04:56:14.230Z,3.52
2023-02-24T04:59:22.644Z,3.50
2023-02-24T05:02:29.625Z,3.47
2023-02-24T05:05:37.551Z,3.47
2023-02-24T05:08:45.445Z,3.42
2023-02-24T05:11:52.588Z,3.36
2023-02-24T05:15:00.241Z,3.33
2023-02-24T05:18:07.705Z,3.30
2023-02-24T05:21:15.126Z,3.25
2023-02-24T05:24:22.989Z,3.25
2023-02-24T05:27:30.279Z,3.24
2023-02-24T05:30:37.837Z,3.28
2023-02-24T05:33:45.747Z,3.28
2023-02-24T05:36:53.309Z,3.27
2023-02-24T05:40:00.995Z,3.28
2023-02-24T05:43:08.085Z,3.25
2023-02-24T05:46:16.045Z,3.25
2023-02-24T06:02:48.938Z,3.12
2023-02-24T06:05:56.185Z,3.12
2023-02-24T06:09:03.701Z,3.12
2023-02-24T06:12:11.067Z,3.12
2023-02-24T06:15:18.075Z,3.10
2023-02-24T06:18:25.140Z,3.13
2023-02-24T06:21:32.592Z,3.12
2023-02-24T06:24:39.615Z,3.09
2023-02-24T06:27:47.190Z,3.12
2023-02-24T06:30:54.649Z,3.12
2023-02-24T06:34:02.356Z,3.13
2023-02-24T06:37:09.694Z,3.15
2023-02-24T06:40:17.045Z,3.16
2023-02-24T06:43:24.187Z,3.18
2023-02-24T06:46:32.125Z,3.16
2023-02-24T06:49:39.513Z,3.20
2023-02-24T06:52:47.024Z,3.20
2023-02-24T06:55:54.744Z,3.21
2023-02-24T06:59:02.222Z,3.24
2023-02-24T07:02:09.397Z,3.28
2023-02-24T07:05:17.065Z,3.30
2023-02-24T07:08:24.654Z,3.30
2023-02-24T07:11:32.112Z,3.36
2023-02-24T07:14:39.827Z,3.34
2023-02-24T07:17:48.495Z,3.39
2023-02-24T07:20:55.885Z,3.40
2023-02-24T07:24:03.727Z,3.40
2023-02-24T07:27:11.104Z,3.42
2023-02-24T07:30:18.233Z,3.44
2023-02-24T07:33:25.557Z,3.46
2023-02-24T07:36:33.194Z,3.47
2023-02-24T07:39:40.578Z,3.50
2023-02-24T07:42:48.137Z,3.53
2023-02-24T07:45:56.111Z,3.54
2023-02-24T07:49:03.320Z,3.58
2023-02-24T07:52:10.643Z,3.60
2023-02-24T07:55:18.289Z,3.60
2023-02-24T07:58:25.373Z,3.61
2023-02-24T08:01:33.713Z,3.62
2023-02-24T08:04:41.309Z,3.61
2023-02-24T08:07:48.325Z,3.60
2023-02-24T08:10:55.916Z,3.61
2023-02-24T08:14:03.476Z,3.62
2023-02-24T08:17:10.798Z,3.64
2023-02-24T08:20:18.549Z,3.68
2023-02-24T08:23:26.021Z,3.65
2023-02-24T08:26:33.555Z,3.72
2023-02-24T08:29:41.021Z,3.75
2023-02-24T08:32:48.322Z,3.72
2023-02-24T08:35:55.759Z,3.78
2023-02-24T08:39:02.820Z,3.79
2023-02-24T08:42:10.370Z,3.78
2023-02-24T08:45:18.077Z,3.79
2023-02-24T08:48:25.045Z,3.82
2023-02-24T08:51:32.788Z,3.86
2023-02-24T08:54:40.653Z,3.92
2023-02-24T08:57:47.849Z,3.92
2023-02-24T09:00:55.532Z,3.90
2023-02-24T09:04:02.912Z,3.92
2023-02-24T09:07:11.925Z,3.96
2023-02-24T09:10:19.902Z,3.94
2023-02-24T09:13:27.458Z,3.94
2023-02-24T09:16:34.881Z,3.94
2023-02-24T09:19:42.565Z,3.92
2023-02-24T09:22:50.094Z,3.92
2023-02-24T09:25:57.527Z,3.94
2023-02-24T09:29:05.059Z,3.96
2023-02-24T09:32:12.872Z,3.96
2023-02-24T09:35:19.906Z,3.94
2023-02-24T09:38:28.125Z,3.89
2023-02-24T09:41:36.172Z,3.86
2023-02-24T09:44:43.387Z,3.80
2023-02-24T09:47:51.066Z,3.68
2023-02-24T09:51:03.708Z,3.58
2023-02-24T09:54:01.356Z,3.52
2023-02-24T09:57:08.911Z,3.57
2023-02-24T10:00:16.510Z,3.57
2023-02-24T10:03:23.712Z,3.36
2023-02-24T10:06:31.351Z,3.30
2023-02-24T10:09:38.912Z,3.27
2023-02-24T10:12:46.472Z,3.16
2023-02-24T10:15:57.245Z,3.07
2023-02-24T10:18:54.602Z,3.06
2023-02-24T10:22:01.729Z,3.10
2023-02-24T10:25:09.641Z,3.13
2023-02-24T10:28:17.690Z,3.07
2023-02-24T10:31:26.126Z,3.05
2023-02-24T10:34:34.591Z,3.00
2023-02-24T10:37:42.634Z,3.06
2023-02-24T10:40:49.851Z,3.12
2023-02-24T10:43:57.596Z,3.21
2023-02-24T10:47:04.922Z,3.30
2023-02-24T10:50:12.902Z,3.30
2023-02-24T10:53:20.403Z,3.27
2023-02-24T10:56:30.060Z,3.27
2023-02-24T10:59:37.853Z,3.25
2023-02-24T11:02:45.141Z,3.27
2023-02-24T11:05:53.262Z,3.18
2023-02-24T11:09:00.946Z,3.21
2023-02-24T11:12:07.797Z,3.30
2023-02-24T11:15:15.537Z,3.20
2023-02-24T11:18:23.805Z,3.20
2023-02-24T11:21:31.082Z,3.21
2023-02-24T11:24:39.091Z,3.18
2023-02-24T11:27:46.418Z,3.30
2023-02-24T11:30:53.911Z,3.47
2023-02-24T11:34:01.701Z,3.65
2023-02-24T11:37:09.051Z,3.61
2023-02-24T11:40:16.773Z,3.67
2023-02-24T11:43:24.213Z,3.61
2023-02-24T11:46:32.004Z,3.54
2023-02-24T11:49:39.335Z,3.42
2023-02-24T11:52:46.561Z,3.27
2023-02-24T11:55:54.506Z,3.28
2023-02-24T11:59:01.739Z,3.24
2023-02-24T12:02:09.034Z,3.25
2023-02-24T12:05:17.214Z,3.25
2023-02-24T12:08:24.473Z,3.21
2023-02-24T12:11:32.078Z,3.25
2023-02-24T12:14:39.977Z,3.16
2023-02-24T12:17:47.054Z,3.09
2023-02-24T12:20:54.940Z,3.09
2023-02-24T12:24:02.721Z,3.02
2023-02-24T12:27:09.817Z,2.94
2023-02-24T12:30:17.764Z,2.94
2023-02-24T12:33:25.238Z,2.95
2023-02-24T12:36:32.416Z,2.91
2023-02-24T12:39:40.386Z,2.88
2023-02-24T12:42:47.801Z,2.98
2023-02-24T12:45:55.384Z,2.95
2023-02-24T12:49:02.860Z,3.02
2023-02-24T12:52:10.853Z,2.95
2023-02-24T12:55:18.297Z,2.88
2023-02-24T12:58:25.953Z,2.89
2023-02-24T13:01:33.865Z,2.84
2023-02-24T13:04:41.185Z,2.85
2023-02-24T13:07:48.362Z,2.79
2023-02-24T13:10:56.468Z,2.77
2023-02-24T13:14:04.546Z,2.82
2023-02-24T13:17:11.730Z,2.87
2023-02-24T13:20:20.002Z,2.87
2023-02-24T13:23:27.259Z,2.85
2023-02-24T13:26:35.156Z,2.81
2023-02-24T13:29:43.149Z,2.79
2023-02-24T13:32:50.272Z,2.66
2023-02-24T13:35:57.882Z,2.63
2023-02-24T13:39:05.304Z,2.66
2023-02-24T13:42:12.849Z,2.71
2023-02-24T13:45:20.617Z,2.74
2023-02-24T13:48:27.802Z,2.77
2023-02-24T13:51:35.199Z,2.76
2023-02-24T13:54:42.650Z,2.77
2023-02-24T13:57:49.943Z,2.79
2023-02-24T14:00:57.237Z,2.76
2023-02-24T14:04:04.645Z,2.74
2023-02-24T14:07:12.664Z,2.74
2023-02-24T14:10:19.965Z,2.69
2023-02-24T14:13:28.206Z,2.69
2023-02-24T14:16:36.298Z,2.71
2023-02-24T14:19:43.144Z,2.71
2023-02-24T14:22:51.042Z,2.74
2023-02-24T14:25:58.847Z,2.73
2023-02-24T14:29:05.849Z,2.79
2023-02-24T14:32:13.520Z,2.85
2023-02-24T14:35:20.980Z,2.88
2023-02-24T14:38:28.337Z,2.85
2023-02-24T14:41:36.013Z,2.88
2023-02-24T14:44:43.649Z,2.91
2023-02-24T14:47:51.074Z,3.00
2023-02-24T14:50:58.876Z,2.98
2023-02-24T14:54:06.239Z,3.03
2023-02-24T14:57:14.883Z,3.07
2023-02-24T15:00:22.027Z,3.10
2023-02-24T15:03:29.470Z,3.12
2023-02-24T15:06:36.897Z,3.15
2023-02-24T15:09:44.006Z,3.21
2023-02-24T15:12:51.656Z,3.24
2023-02-24T15:15:59.634Z,3.31
2023-02-24T15:19:06.643Z,3.39
2023-02-24T15:22:14.427Z,3.46
2023-02-24T15:25:28.107Z,3.44
2023-02-24T15:28:26.515Z,3.43
2023-02-24T15:31:34.318Z,3.47
2023-02-24T15:34:41.679Z,3.47
2023-02-24T15:37:49.221Z,3.49
2023-02-24T15:40:56.291Z,3.47
2023-02-24T15:44:04.107Z,3.47
2023-02-24T15:47:11.668Z,3.50
2023-02-24T15:50:18.941Z,3.47
2023-02-24T15:53:26.670Z,3.50
2023-02-24T15:56:33.874Z,3.52
2023-02-24T15:59:41.546Z,3.50
2023-02-24T16:02:49.097Z,3.53
2023-02-24T16:05:56.271Z,3.57
2023-02-24T16:09:03.619Z,3.60
2023-02-24T16:12:11.310Z,3.60
2023-02-24T16:15:18.275Z,3.58
2023-02-24T16:18:25.641Z,3.64
2023-02-24T16:21:33.337Z,3.62
2023-02-24T16:24:40.633Z,3.67
2023-02-24T16:27:48.046Z,3.68
2023-02-24T16:30:55.296Z,3.68
2023-02-24T16:34:03.350Z,3.68
2023-02-24T16:37:10.837Z,3.67
2023-02-24T16:40:18.099Z,3.67
2023-02-24T16:43:26.012Z,3.70
2023-02-24T16:46:33.427Z,3.70
2023-02-24T16:49:40.860Z,3.71
2023-02-24T16:52:48.726Z,3.72
2023-02-24T16:55:55.802Z,3.72
2023-02-24T16:59:03.388Z,3.75
2023-02-24T17:02:11.323Z,3.70
2023-02-24T17:05:18.437Z,3.70
2023-02-24T17:08:25.817Z,3.70
2023-02-24T17:11:33.593Z,3.71
2023-02-24T17:14:40.974Z,3.70
2023-02-24T17:17:48.739Z,3.71
2023-02-24T17:20:56.129Z,3.70
2023-02-24T17:24:03.501Z,3.70
2023-02-24T17:27:11.587Z,3.72
2023-02-24T17:30:18.927Z,3.76
2023-02-24T17:33:26.502Z,3.76
2023-02-24T17:36:34.052Z,3.76
2023-02-24T17:39:41.418Z,3.78
2023-02-24T17:42:48.903Z,3.75
2023-02-24T17:45:56.656Z,3.76
2023-02-24T17:49:04.263Z,3.78
2023-02-24T17:52:12.504Z,3.79
2023-02-24T17:55:19.817Z,3.79
2023-02-24T17:58:27.513Z,3.80
2023-02-24T18:01:34.939Z,3.82
2023-02-24T18:04:42.679Z,3.83
2023-02-24T18:07:50.617Z,3.86
2023-02-24T18:10:57.834Z,3.86
2023-02-24T18:14:05.812Z,3.89
2023-02-24T18:17:13.403Z,3.90
2023-02-24T18:20:20.901Z,3.92
2023-02-24T18:23:28.110Z,3.94
2023-02-24T18:26:35.820Z,3.94
2023-02-24T18:29:43.491Z,3.94
2023-02-24T18:32:51.590Z,3.92
2023-02-24T18:35:59.210Z,3.92
2023-02-24T18:39:06.736Z,3.96
2023-02-24T18:42:14.256Z,3.96
2023-02-24T18:45:21.630Z,3.97
2023-02-24T18:48:29.504Z,4.00
2023-02-24T18:51:37.761Z,4.04
2023-02-24T18:54:45.043Z,4.04
2023-02-24T18:57:52.959Z,4.04
2023-02-24T19:01:00.190Z,4.07
2023-02-24T19:04:07.424Z,4.10
2023-02-24T19:07:15.312Z,4.10
2023-02-24T19:10:22.773Z,4.10
2023-02-24T19:13:30.133Z,4.08
2023-02-24T19:16:38.098Z,4.06
2023-02-24T19:19:45.056Z,4.03
2023-02-24T19:22:52.659Z,4.03
2023-02-24T19:26:00.357Z,4.03
2023-02-24T19:29:07.777Z,4.01
2023-02-24T19:32:15.421Z,4.01
2023-02-24T19:35:22.704Z,4.00
2023-02-24T19:38:29.758Z,4.01
2023-02-24T19:41:37.659Z,4.03
2023-02-24T19:44:44.796Z,3.98
2023-02-24T19:47:52.515Z,3.92
2023-02-24T19:50:59.999Z,3.94
2023-02-24T19:54:07.721Z,3.96
2023-02-24T19:57:15.619Z,3.96
2023-02-24T20:00:22.668Z,3.98
2023-02-24T20:03:30.363Z,4.00
2023-02-24T20:06:38.104Z,4.01
2023-02-24T20:09:45.332Z,4.01
2023-02-24T20:12:52.830Z,3.97
2023-02-24T20:16:00.496Z,3.97
2023-02-24T20:19:07.635Z,3.94
2023-02-24T20:22:15.479Z,3.94
2023-02-24T20:25:22.792Z,3.98
2023-02-24T20:28:29.751Z,4.01
2023-02-24T20:31:37.663Z,4.03
2023-02-24T20:34:45.552Z,4.04
2023-02-24T20:37:52.356Z,4.08
2023-02-24T20:41:00.573Z,4.10
2023-02-24T20:44:07.892Z,4.14
2023-02-24T20:47:17.075Z,4.12
2023-02-24T20:50:25.529Z,4.12
2023-02-24T20:53:32.884Z,4.08
2023-02-24T20:56:40.510Z,4.07
2023-02-24T21:00:02.511Z,4.07
2023-02-24T21:02:52.709Z,4.07
2023-02-24T21:06:09.539Z,4.07
2023-02-24T21:09:05.165Z,4.06
2023-02-24T21:12:12.640Z,4.01
2023-02-24T21:15:20.638Z,4.00
2023-02-24T21:18:28.284Z,3.97
2023-02-24T21:21:36.302Z,3.94
2023-02-24T21:24:44.054Z,3.90
2023-02-24T21:27:51.169Z,3.90
2023-02-24T21:30:59.102Z,3.92
2023-02-24T21:34:06.487Z,3.92
2023-02-24T21:37:13.813Z,3.94
2023-02-24T21:40:21.310Z,3.94
2023-02-24T21:43:28.391Z,3.98
2023-02-24T21:46:35.952Z,3.98
2023-02-24T21:49:43.774Z,4.00
2023-02-24T21:52:50.791Z,3.98
2023-02-24T21:55:58.356Z,3.98
2023-02-24T21:59:05.635Z,4.03
2023-02-24T22:02:12.664Z,4.03
2023-02-24T22:05:20.476Z,4.01
2023-02-24T22:08:27.983Z,4.03
2023-02-24T22:11:35.354Z,4.03
2023-02-24T22:14:43.205Z,4.01
2023-02-24T22:17:50.678Z,4.03
2023-02-24T22:20:57.946Z,4.03
2023-02-24T22:24:05.718Z,4.01
2023-02-24T22:27:13.139Z,4.01
2023-02-24T22:30:20.732Z,4.03
2023-02-24T22:33:28.142Z,3.98
2023-02-24T22:36:35.923Z,3.97
2023-02-24T22:39:43.404Z,3.97
2023-02-24T22:42:50.707Z,3.97
2023-02-24T22:45:58.355Z,3.96
2023-02-24T22:49:05.326Z,3.94
2023-02-24T22:52:12.620Z,3.92
2023-02-24T22:55:20.357Z,3.90
2023-02-24T22:58:27.660Z,3.89
2023-02-24T23:01:34.802Z,3.89
2023-02-24T23:04:42.439Z,3.86
2023-02-24T23:07:49.539Z,3.86
2023-02-24T23:10:57.307Z,3.89
2023-02-24T23:14:05.172Z,3.86
2023-02-24T23:17:12.156Z,3.86
2023-02-24T23:20:19.774Z,3.88
2023-02-24T23:23:27.556Z,3.89
2023-02-24T23:26:34.530Z,3.89
2023-02-24T23:29:42.292Z,3.89
2023-02-24T23:32:49.774Z,3.89
2023-02-24T23:35:57.483Z,3.89
2023-02-24T23:39:04.552Z,3.89
2023-02-24T23:42:11.937Z,3.89
2023-02-24T23:45:19.438Z,3.90
2023-02-24T23:48:26.845Z,3.89
2023-02-24T23:51:49.344Z,3.89
2023-02-24T23:54:38.830Z,3.88
2023-02-24T23:57:46.200Z,3.85
